Minneapolis, MN

3:18 AM CST on November 29, 2014 (GMT -0600)
Minneapolis-Saint Paul International | Change Station
CLOSE
Current Station
Airport
Location: Minneapolis,
Elevation: 837 ft
Nearby Weather Stations

Elev 837 ft 44.89 °N, 93.23 °W | Updated 25 minutes ago

Mostly Cloudy
Mostly Cloudy
23 °F
Feels Like 14 °F
N
8
Wind Variable Wind from East

Today
High -- | Low -- °F
--% Chance of Precip.
Yesterday
High -- | Low -- °F
Precip. -- in
7:28 AM 4:34 PM
Waxing Crescent, 49% visible
Pressure 29.63 in
Visibility 6.0 miles
Clouds Mostly Cloudy 23000 ft
Windchill 14 °F
Dew Point 19 °F
Humidity 85%
Rainfall 0.00 in
Snow Depth Not available.
UV 0 out of 12
Pollen .10 out of 12
Air Quality Not available.
Flu Activity Not available.
METAR KMSP 290853Z 10007KT 6SM BR BKN230 M05/M07 A2959 RMK AO2 SLP033 T10501072 56029

More Conditions Fewer Conditions

Pressure 29.63 in
Visibility 6.0 miles
Clouds Mostly Cloudy 23000 ft
Windchill 14 °F
Dew Point 19 °F
Humidity 85%
Rainfall 0.00 in
Snow Depth Not available.
UV 0 out of 12
Pollen .10 out of 12
Air Quality Not available.
Flu Activity Not available.
METAR KMSP 290853Z 10007KT 6SM BR BKN230 M05/M07 A2959 RMK AO2 SLP033 T10501072 56029

More Conditions Fewer Conditions

10-Day Weather Forecast

Almanac

Astronomy

Nov. 29, 2014 Rise Set
Actual Time
Civil Twilight
Nautical Twilight
Astronomical Twilight
Moon
Length of Visible Light
Length of Day
Tomorrow will be .
, % of the Moon is Illuminated

Today's Extremes

State Highs State Lows

Community

WunderPhotos

Upload Photos

1,774,442 photos uploaded!

WunderBlogs® & News

Nearby

Air Quality

  Air Quality AQ Index Pollutant
Not available.

Snow Depth

Station Depth Elevation

Earthquake Activity

City Distance Mag. Time & Date
Minimum magnitude displayed is 2.5.

Coastal Water Temperatures

Place Temperature

Nearby Weather Stations